GIG weather

Rio Galeão – Tom Jobim International Airport
Rio De Janeiro, Rio de Janeiro, Brazil

Public forecast

Using degrees Celsius for public forecast. Weather courtesy of forecast.io.

METAR (pilot weather report)

Retrieved 2019/05/25 16:00 UTC (44 minutes ago):

SBGL 251600Z 24004KT 9999 BKN030 BKN040 26/17 Q1012

TAF (pilot weather forecast)

Retrieved 2019/05/25 12:00 UTC (5 hours ago):

TAF SBGL 250900Z 2512/2618 24010KT 7000 BKN017 TN18/2608Z TX26/2617Z BECMG 2520/2522 27005KT BECMG 2602/2604 31005KT PROB40 2608/2611 5000 BR BKN015 BECMG 2613/2615 17010KT RMK PGU